Time;durP1;ratioP1;P1;durP2;ratioP2;P2;SDS_P1;SDS_P2;PMS_P1;PMS_P2;Temp;Humidity;BMP_temperature;BMP_pressure;BME280_temperature;BME280_humidity;BME280_pressure;Samples;Min_cycle;Max_cycle;Signal;HPM_P1;HPM_P2
2021/11/29 00:01:41;;;;;;;5.37;1.93;;;;;;;-2.36;74.91;100783.28;6142413;29;20410;-75
2021/11/29 00:04:47;;;;;;;6.33;2.10;;;;;;;-2.25;74.62;100792.03;6142835;29;20191;-75
2021/11/29 00:07:53;;;;;;;2.50;2.13;;;;;;;-2.14;73.65;100772.38;6142968;29;20243;-75
2021/11/29 00:10:57;;;;;;;1.90;1.73;;;;;;;-2.23;73.93;100778.53;6142081;29;20428;-75
2021/11/29 00:14:01;;;;;;;1.67;1.67;;;;;;;-2.23;74.17;100778.53;6142829;29;20194;-75
2021/11/29 00:17:10;;;;;;;2.00;1.90;;;;;;;-2.23;74.14;100781.19;6142795;29;20226;-75
2021/11/29 00:20:17;;;;;;;2.27;2.23;;;;;;;-2.22;74.37;100781.06;6142549;29;20296;-75
2021/11/29 00:23:21;;;;;;;2.00;2.00;;;;;;;-2.20;73.72;100772.91;6140808;29;20238;-75
2021/11/29 00:26:27;;;;;;;1.80;1.80;;;;;;;-2.23;74.21;100786.53;6142418;29;20211;-75
2021/11/29 00:29:32;;;;;;;2.10;2.10;;;;;;;-2.25;74.05;100778.66;6143046;29;20191;-75
2021/11/29 00:32:36;;;;;;;1.93;1.93;;;;;;;-2.25;73.95;100786.69;6142978;29;20263;-75
2021/11/29 00:35:42;;;;;;;2.20;2.20;;;;;;;-2.23;74.76;100783.88;6142596;29;20219;-75
2021/11/29 00:38:47;;;;;;;3.03;2.20;;;;;;;-2.23;74.74;100783.88;6142454;29;20191;-75
2021/11/29 00:41:51;;;;;;;2.30;2.30;;;;;;;-2.15;73.61;100792.06;6142349;29;20190;-75
2021/11/29 00:44:55;;;;;;;1.83;1.83;;;;;;;-2.15;74.02;100770.66;6142290;29;20191;-75
2021/11/29 00:48:00;;;;;;;2.53;2.40;;;;;;;-2.10;73.36;100789.81;6141487;29;20529;-74
2021/11/29 00:51:06;;;;;;;2.40;2.30;;;;;;;-2.01;73.05;100783.66;6142242;29;20258;-75
2021/11/29 00:54:11;;;;;;;1.87;1.77;;;;;;;-2.18;73.58;100797.66;6142380;29;20259;-75
2021/11/29 00:57:16;;;;;;;1.90;1.90;;;;;;;-2.30;74.21;100804.97;6141285;29;20602;-74
2021/11/29 01:00:22;;;;;;;1.63;1.63;;;;;;;-2.24;74.04;100803.56;6142553;29;20199;-75
2021/11/29 01:03:27;;;;;;;1.90;1.80;;;;;;;-2.27;74.47;100798.50;6141868;29;20192;-75
2021/11/29 01:06:32;;;;;;;1.63;1.50;;;;;;;-2.32;74.03;100806.06;6141578;29;20298;-75
2021/11/29 01:09:37;;;;;;;4.53;1.70;;;;;;;-2.24;74.76;100808.91;6141867;29;20261;-75
2021/11/29 01:12:42;;;;;;;5.30;2.00;;;;;;;-2.20;73.95;100815.66;6142441;29;20191;-75
2021/11/29 01:15:47;;;;;;;2.23;2.10;;;;;;;-2.31;74.25;100818.47;6140749;29;20241;-75
2021/11/29 01:18:52;;;;;;;1.87;1.87;;;;;;;-2.35;74.48;100812.53;6142133;29;20192;-75
2021/11/29 01:21:57;;;;;;;2.00;1.90;;;;;;;-2.29;74.49;100811.16;6142276;29;20203;-76
2021/11/29 01:25:02;;;;;;;1.50;1.50;;;;;;;-2.24;73.97;100816.94;6142451;29;20211;-75
2021/11/29 01:28:06;;;;;;;2.07;1.73;;;;;;;-2.37;74.07;100803.81;6140959;29;20250;-75
2021/11/29 01:31:11;;;;;;;1.47;1.47;;;;;;;-2.21;74.24;100797.97;6142668;29;20191;-75
2021/11/29 01:34:17;;;;;;;1.80;1.80;;;;;;;-2.27;74.49;100809.19;6142530;29;20192;-75
2021/11/29 01:37:23;;;;;;;1.70;1.70;;;;;;;-2.33;74.67;100804.38;6141275;29;20266;-75
2021/11/29 01:40:29;;;;;;;1.70;1.70;;;;;;;-2.27;75.34;100809.19;6140573;29;20192;-75
2021/11/29 01:43:33;;;;;;;1.43;1.43;;;;;;;-2.26;74.11;100803.69;6140802;29;20502;-75
2021/11/29 01:46:39;;;;;;;1.80;1.80;;;;;;;-2.25;74.42;100797.38;6140589;29;20462;-75
2021/11/29 01:49:43;;;;;;;1.60;1.60;;;;;;;-2.19;74.27;100801.34;6141719;29;20198;-75
2021/11/29 01:52:50;;;;;;;1.90;1.90;;;;;;;-2.17;75.02;100799.38;6141605;29;20195;-75
2021/11/29 01:55:57;;;;;;;1.70;1.70;;;;;;;-2.22;75.12;100812.28;6141458;29;20236;-75
2021/11/29 01:59:01;;;;;;;1.50;1.50;;;;;;;-2.28;75.90;100804.81;6141770;29;20192;-75
2021/11/29 02:02:06;;;;;;;1.93;1.83;;;;;;;-2.25;75.66;100801.88;6140789;29;20527;-75
2021/11/29 02:05:11;;;;;;;1.80;1.80;;;;;;;-2.15;75.64;100813.44;6140337;29;20424;-75
2021/11/29 02:08:18;;;;;;;2.60;1.83;;;;;;;-2.08;75.50;100814.59;6094073;29;20202;-75
2021/11/29 02:11:24;;;;;;;2.77;1.93;;;;;;;-2.17;75.46;100804.72;6094531;29;20224;-75
2021/11/29 02:14:28;;;;;;;2.13;1.80;;;;;;;-2.09;75.41;100797.72;6094474;29;20352;-75
2021/11/29 02:17:33;;;;;;;2.20;2.10;;;;;;;-2.12;75.18;100787.28;6093493;29;20220;-75
2021/11/29 02:20:38;;;;;;;1.73;1.73;;;;;;;-2.01;75.43;100791.69;6094666;29;20258;-76
2021/11/29 02:23:46;;;;;;;2.00;1.70;;;;;;;-2.07;75.31;100784.19;6093178;29;20520;-75
2021/11/29 02:26:50;;;;;;;1.87;1.87;;;;;;;-1.97;74.89;100785.06;6093717;29;20212;-76
2021/11/29 02:29:56;;;;;;;1.83;1.83;;;;;;;-2.12;75.68;100792.63;6094199;29;20193;-76
2021/11/29 02:33:00;;;;;;;2.50;1.90;;;;;;;-2.07;74.81;100794.88;6093931;29;20193;-75
2021/11/29 02:36:07;;;;;;;2.50;2.27;;;;;;;-2.01;75.03;100799.69;6093999;29;20192;-76
2021/11/29 02:39:15;;;;;;;1.70;1.70;;;;;;;-2.03;74.27;100788.31;6096214;29;20236;-75
2021/11/29 02:42:19;;;;;;;1.60;1.60;;;;;;;-2.05;74.65;100782.22;6098487;29;20215;-75
2021/11/29 02:45:23;;;;;;;1.73;1.73;;;;;;;-2.02;74.31;100782.81;6098531;29;20200;-75
2021/11/29 02:48:42;;;;;;;1.80;1.80;;;;;;;-2.13;74.55;100785.59;6098253;29;20260;-75
2021/11/29 02:51:51;;;;;;;2.20;1.77;;;;;;;-2.21;74.24;100781.94;6097036;29;20206;-75
2021/11/29 02:54:55;;;;;;;2.10;2.10;;;;;;;-2.15;74.54;100776.00;6098190;29;20193;-75
2021/11/29 02:57:59;;;;;;;2.40;1.97;;;;;;;-2.00;74.34;100790.69;6096639;29;20502;-75
2021/11/29 03:01:04;;;;;;;1.77;1.77;;;;;;;-2.13;73.79;100784.75;6097624;29;20193;-75
2021/11/29 03:04:09;;;;;;;1.70;1.70;;;;;;;-2.09;73.21;100786.16;6097426;29;20264;-75
2021/11/29 03:07:15;;;;;;;1.73;1.73;;;;;;;-2.20;73.29;100786.28;6127610;29;20243;-75
2021/11/29 03:10:19;;;;;;;1.70;1.70;;;;;;;-2.35;73.48;100792.97;6143540;29;20211;-75
2021/11/29 03:13:24;;;;;;;1.90;1.80;;;;;;;-2.19;73.39;100785.31;6144564;29;20198;-75
2021/11/29 03:16:29;;;;;;;1.87;1.80;;;;;;;-2.26;73.04;100789.50;6144629;29;20199;-75
2021/11/29 03:19:36;;;;;;;1.70;1.70;;;;;;;-2.48;73.60;100789.69;6143050;29;20253;-75
2021/11/29 03:22:44;;;;;;;1.80;1.80;;;;;;;-2.48;74.20;100800.38;6144290;29;20226;-75
2021/11/29 03:25:48;;;;;;;1.93;1.90;;;;;;;-2.48;74.08;100790.53;6143717;29;20250;-75
2021/11/29 03:28:59;;;;;;;2.30;2.10;;;;;;;-2.27;73.65;100793.16;6144373;29;20262;-75
2021/11/29 03:32:06;;;;;;;1.53;1.53;;;;;;;-2.19;73.34;100790.66;6143942;29;20353;-76
2021/11/29 03:35:15;;;;;;;1.53;1.53;;;;;;;-2.11;73.14;100793.47;6144038;29;20255;-76
2021/11/29 03:38:21;;;;;;;1.70;1.70;;;;;;;-2.20;73.03;100788.94;6143765;29;20216;-76
2021/11/29 03:41:26;;;;;;;2.00;1.90;;;;;;;-2.20;73.25;100789.78;6142792;29;20379;-76
2021/11/29 03:44:31;;;;;;;1.57;1.57;;;;;;;-2.35;73.15;100784.97;6143836;29;20304;-76
2021/11/29 03:47:35;;;;;;;1.80;1.80;;;;;;;-2.28;73.37;100804.81;6143975;29;20193;-76
2021/11/29 03:50:40;;;;;;;2.07;1.97;;;;;;;-2.37;73.07;100797.63;6142635;29;20468;-76
2021/11/29 03:53:46;;;;;;;2.03;1.93;;;;;;;-2.41;73.64;100799.72;6143786;29;20270;-76
2021/11/29 03:56:50;;;;;;;2.10;1.73;;;;;;;-2.47;73.70;100804.75;6142440;29;20498;-76
2021/11/29 03:59:55;;;;;;;1.57;1.57;;;;;;;-2.58;74.11;100793.19;6143859;29;20218;-76
2021/11/29 04:02:59;;;;;;;1.30;1.30;;;;;;;-2.45;73.93;100794.78;6143477;29;20234;-76
2021/11/29 04:06:04;;;;;;;1.97;1.67;;;;;;;-2.35;73.27;100790.31;6142381;29;20362;-76
2021/11/29 04:09:11;;;;;;;2.10;1.80;;;;;;;-2.30;73.10;100804.09;6143622;29;20234;-76
2021/11/29 04:12:16;;;;;;;1.57;1.53;;;;;;;-2.41;74.11;100797.03;6143436;29;20258;-76
2021/11/29 04:15:20;;;;;;;1.93;1.93;;;;;;;-2.31;73.70;100799.75;6143128;29;20195;-76
2021/11/29 04:18:24;;;;;;;1.60;1.60;;;;;;;-2.45;74.33;100808.13;6141779;29;20218;-76
2021/11/29 04:21:28;;;;;;;1.80;1.70;;;;;;;-2.18;73.96;100797.66;6141987;29;20393;-76
2021/11/29 04:24:36;;;;;;;1.97;1.80;;;;;;;-2.35;73.93;100796.50;6141693;29;20504;-76
2021/11/29 04:27:42;;;;;;;1.63;1.63;;;;;;;-2.30;74.45;100799.63;6141776;29;20500;-76
2021/11/29 04:30:46;;;;;;;1.73;1.73;;;;;;;-2.20;73.46;100795.13;6142707;29;20231;-78
2021/11/29 04:33:50;;;;;;;1.73;1.73;;;;;;;-2.32;73.67;100801.59;6141974;29;20191;-76
2021/11/29 04:36:55;;;;;;;1.67;1.57;;;;;;;-2.16;73.26;100806.41;6141637;29;20191;-76
2021/11/29 04:40:00;;;;;;;1.63;1.63;;;;;;;-2.27;72.89;100798.50;6142878;29;20247;-76
2021/11/29 04:43:05;;;;;;;1.63;1.63;;;;;;;-2.43;73.32;100803.50;6141940;29;20195;-76
2021/11/29 04:46:09;;;;;;;1.80;1.73;;;;;;;-2.41;73.20;100818.41;6141752;29;20196;-76
2021/11/29 04:49:15;;;;;;;1.60;1.33;;;;;;;-2.47;73.00;100812.78;6142793;29;20311;-76
2021/11/29 04:52:21;;;;;;;1.40;1.40;;;;;;;-2.58;73.12;100816.38;6141277;29;20365;-76
2021/11/29 04:55:26;;;;;;;1.50;1.50;;;;;;;-2.36;72.80;100820.69;6142433;29;20204;-76
2021/11/29 04:58:31;;;;;;;1.50;1.50;;;;;;;-2.49;74.03;100809.41;6141032;29;20294;-76
2021/11/29 05:01:35;;;;;;;1.90;1.60;;;;;;;-2.54;73.44;100818.63;6142173;29;20207;-76
2021/11/29 05:04:45;;;;;;;1.30;1.30;;;;;;;-2.49;74.52;100804.06;6142383;29;20192;-76
2021/11/29 05:07:49;;;;;;;1.83;1.50;;;;;;;-2.41;73.22;100807.72;6141482;29;20302;-76
2021/11/29 05:10:54;;;;;;;1.80;1.70;;;;;;;-2.31;73.87;100802.44;6141075;29;20466;-76
2021/11/29 05:13:59;;;;;;;1.73;1.63;;;;;;;-2.41;74.69;100812.25;6140822;29;20505;-76
2021/11/29 05:17:04;;;;;;;1.63;1.63;;;;;;;-2.39;74.42;100804.94;6142230;29;20191;-76
2021/11/29 05:20:10;;;;;;;1.80;1.80;;;;;;;-2.28;74.81;100812.81;6141568;29;20343;-76
2021/11/29 05:23:16;;;;;;;1.63;1.63;;;;;;;-2.11;74.66;100814.88;6141993;29;20207;-76
2021/11/29 05:26:24;;;;;;;1.53;1.53;;;;;;;-2.12;74.36;100814.00;6141993;29;20281;-76
2021/11/29 05:29:29;;;;;;;1.50;1.40;;;;;;;-2.11;74.78;100814.88;6140760;29;20407;-76
2021/11/29 05:32:33;;;;;;;1.50;1.50;;;;;;;-2.26;74.41;100808.22;6142142;29;20213;-76
2021/11/29 05:35:38;;;;;;;1.60;1.60;;;;;;;-2.26;74.93;100810.88;6141964;29;20191;-76
2021/11/29 05:38:42;;;;;;;1.60;1.60;;;;;;;-2.26;75.05;100797.53;6141793;29;20223;-76
2021/11/29 05:41:48;;;;;;;1.70;1.70;;;;;;;-2.49;74.67;100804.06;6140495;29;20469;-76
2021/11/29 05:44:54;;;;;;;4.03;1.47;;;;;;;-2.49;75.86;100804.06;6141395;29;20190;-76
2021/11/29 05:47:58;;;;;;;1.93;1.93;;;;;;;-2.36;75.75;100799.31;6140252;29;20202;-76
2021/11/29 05:51:03;;;;;;;1.83;1.73;;;;;;;-2.25;74.69;100793.84;6141377;29;20243;-76
2021/11/29 05:54:07;;;;;;;1.87;1.83;;;;;;;-2.12;75.17;100791.78;6141244;29;20195;-76
2021/11/29 05:57:13;;;;;;;1.80;1.80;;;;;;;-2.08;74.00;100794.03;6140448;29;20259;-76
2021/11/29 06:00:20;;;;;;;2.33;2.30;;;;;;;-2.04;73.79;100794.63;6141647;29;20220;-76
2021/11/29 06:03:24;;;;;;;1.97;1.87;;;;;;;-1.99;74.07;100792.38;6141521;29;20198;-76
2021/11/29 06:06:28;;;;;;;2.13;2.10;;;;;;;-2.06;74.11;100792.09;6141571;29;20243;-76
2021/11/29 06:09:33;;;;;;;2.07;1.97;;;;;;;-2.12;74.55;100797.13;6141506;29;20259;-76
2021/11/29 06:12:39;;;;;;;1.80;1.80;;;;;;;-2.20;74.43;100794.28;6140276;29;20500;-76
2021/11/29 06:15:43;;;;;;;2.27;2.07;;;;;;;-2.24;74.30;100804.44;6145892;29;20223;-76
2021/11/29 06:18:47;;;;;;;2.47;1.80;;;;;;;-2.23;75.01;100805.25;6145042;29;20539;-76
2021/11/29 06:21:52;;;;;;;1.80;1.80;;;;;;;-2.14;74.48;100807.13;6144622;29;20411;-77
2021/11/29 06:24:57;;;;;;;2.10;1.80;;;;;;;-2.14;73.62;100793.75;6145473;29;20206;-76
2021/11/29 06:28:02;;;;;;;2.33;1.60;;;;;;;-2.20;74.33;100797.81;6144689;29;20245;-76
2021/11/29 06:31:06;;;;;;;1.90;1.80;;;;;;;-2.22;74.07;100806.94;6145686;29;20210;-76
2021/11/29 06:34:10;;;;;;;1.80;1.80;;;;;;;-2.18;74.47;100808.34;6145336;29;20198;-76
2021/11/29 06:37:16;;;;;;;1.90;1.80;;;;;;;-2.20;74.25;100799.63;6144226;29;20481;-76
2021/11/29 06:40:20;;;;;;;1.77;1.77;;;;;;;-2.19;73.89;100793.31;6144131;29;20478;-76
2021/11/29 06:43:27;;;;;;;2.20;2.03;;;;;;;-2.14;74.17;100788.41;6145572;29;20190;-77
2021/11/29 06:46:32;;;;;;;2.20;2.10;;;;;;;-2.16;73.98;100801.06;6145108;29;20198;-76
2021/11/29 06:49:36;;;;;;;2.07;2.00;;;;;;;-2.17;73.70;100799.38;6144818;29;20243;-76
2021/11/29 06:52:41;;;;;;;2.30;2.10;;;;;;;-2.41;74.69;100801.56;6144866;29;20191;-76
2021/11/29 06:55:47;;;;;;;2.27;2.07;;;;;;;-2.26;74.77;100794.84;6144524;29;20193;-77
2021/11/29 06:58:52;;;;;;;1.93;1.93;;;;;;;-2.35;74.91;100801.84;6143472;29;20467;-76
2021/11/29 07:01:57;;;;;;;2.10;2.10;;;;;;;-2.26;74.48;100794.84;6144573;29;20269;-76
2021/11/29 07:05:01;;;;;;;1.90;1.80;;;;;;;-2.19;75.08;100787.97;6143365;29;20191;-77
2021/11/29 07:08:06;;;;;;;2.10;2.00;;;;;;;-2.24;74.36;100782.19;6144615;29;20405;-77
2021/11/29 07:11:11;;;;;;;2.30;2.20;;;;;;;-2.03;74.66;100788.31;6143412;29;20381;-76
2021/11/29 07:14:17;;;;;;;2.30;2.20;;;;;;;-2.15;74.57;100776.88;6143179;29;20255;-76
2021/11/29 07:17:22;;;;;;;2.93;1.93;;;;;;;-2.15;74.46;100781.34;6143776;29;20236;-77
2021/11/29 07:20:26;;;;;;;2.00;1.90;;;;;;;-2.12;73.94;100781.09;6143784;29;20226;-77
2021/11/29 07:23:30;;;;;;;2.50;2.30;;;;;;;-2.12;74.63;100783.75;6143094;29;20500;-76
2021/11/29 07:26:35;;;;;;;1.70;1.70;;;;;;;-2.18;74.46;100789.66;6143902;29;20214;-76
2021/11/29 07:29:40;;;;;;;1.80;1.80;;;;;;;-2.19;74.47;100787.97;6144319;29;20243;-76
2021/11/29 07:32:45;;;;;;;2.13;2.03;;;;;;;-2.12;74.35;100791.78;6144248;29;20219;-77
2021/11/29 07:35:49;;;;;;;1.90;1.80;;;;;;;-2.03;74.50;100790.97;6142765;29;20260;-76
2021/11/29 07:38:54;;;;;;;5.90;2.43;;;;;;;-1.99;74.60;100790.56;6143898;29;20192;-76
2021/11/29 07:41:59;;;;;;;2.17;1.70;;;;;;;-2.16;74.53;100790.38;6143824;29;20218;-77
2021/11/29 07:45:11;;;;;;;1.60;1.60;;;;;;;-2.11;73.98;100793.47;6143906;29;20192;-77
2021/11/29 07:48:16;;;;;;;1.60;1.57;;;;;;;-2.19;74.66;100790.66;6143379;29;20199;-77
2021/11/29 07:51:21;;;;;;;2.37;2.37;;;;;;;-2.07;74.24;100800.22;6143371;29;20227;-76
2021/11/29 07:54:25;;;;;;;2.77;1.80;;;;;;;-2.00;73.81;100802.22;6142440;29;20510;-76
2021/11/29 07:57:30;;;;;;;2.73;1.53;;;;;;;-2.00;74.35;100790.69;6142207;29;20262;-76
2021/11/29 08:00:38;;;;;;;1.93;1.93;;;;;;;-1.87;74.36;100791.25;6143319;29;20219;-76
2021/11/29 08:03:42;;;;;;;1.90;1.80;;;;;;;-1.85;73.97;100783.13;6143534;29;20191;-76
2021/11/29 08:06:46;;;;;;;1.70;1.70;;;;;;;-1.90;73.69;100797.72;6142679;29;20235;-76
2021/11/29 08:09:50;;;;;;;3.00;2.00;;;;;;;-1.87;73.60;100791.25;6142320;29;20199;-75
2021/11/29 08:12:55;;;;;;;2.87;1.93;;;;;;;-1.85;73.70;100805.38;6143084;29;20191;-76
2021/11/29 08:16:00;;;;;;;5.23;1.50;;;;;;;-1.71;73.43;100802.28;6143180;29;20233;-75
2021/11/29 08:19:05;;;;;;;1.90;1.80;;;;;;;-1.78;73.61;100803.81;6141727;29;20315;-76
2021/11/29 08:22:20;;;;;;;2.20;1.90;;;;;;;-1.71;73.50;100790.72;6142733;29;20219;-75
2021/11/29 08:25:25;;;;;;;1.90;1.60;;;;;;;-1.87;73.33;100807.31;6141902;29;20207;-76
2021/11/29 08:28:30;;;;;;;2.03;1.93;;;;;;;-1.99;73.71;100808.41;6142389;29;20222;-76
2021/11/29 08:31:36;;;;;;;2.00;1.90;;;;;;;-1.77;72.48;100816.19;6142501;29;20263;-75
2021/11/29 08:34:41;;;;;;;3.23;1.60;;;;;;;-1.82;72.78;100810.41;6141387;29;20381;-76
2021/11/29 08:37:49;;;;;;;1.50;1.50;;;;;;;-1.70;72.36;100798.63;6141965;29;20191;-76
2021/11/29 08:40:53;;;;;;;1.80;1.80;;;;;;;-1.62;71.90;100795.25;6142759;29;20251;-75
2021/11/29 08:43:58;;;;;;;1.60;1.60;;;;;;;-1.69;71.81;100805.66;6142130;29;20234;-76
2021/11/29 08:47:05;;;;;;;1.70;1.70;;;;;;;-1.71;72.38;100791.56;6142157;29;20229;-76
2021/11/29 08:50:12;;;;;;;1.93;1.70;;;;;;;-1.75;72.81;100795.53;6141669;29;20190;-76
2021/11/29 08:53:37;;;;;;;1.87;1.87;;;;;;;-1.69;71.97;100797.63;6141976;29;20197;-76
2021/11/29 08:56:42;;;;;;;1.87;1.87;;;;;;;-1.56;71.67;100789.31;6141228;29;20506;-76
2021/11/29 08:59:46;;;;;;;1.60;1.60;;;;;;;-1.36;71.10;100781.16;6142161;29;20191;-76
2021/11/29 09:02:52;;;;;;;1.70;1.70;;;;;;;-1.34;71.02;100784.56;6140380;29;20215;-76
2021/11/29 09:05:59;;;;;;;1.80;1.80;;;;;;;-1.42;71.66;100781.72;6141667;29;20306;-76
2021/11/29 09:09:05;;;;;;;2.20;2.00;;;;;;;-1.27;71.55;100774.09;6140840;29;20202;-76
2021/11/29 09:12:09;;;;;;;2.10;1.90;;;;;;;-1.00;71.09;100782.22;6142006;29;20221;-76
2021/11/29 09:15:17;;;;;;;1.67;1.67;;;;;;;-1.23;70.72;100788.06;6141912;29;20364;-76
2021/11/29 09:18:23;;;;;;;1.47;1.47;;;;;;;-1.21;70.18;100778.06;6141249;29;20238;-76
2021/11/29 09:21:27;;;;;;;5.53;1.67;;;;;;;-1.22;70.24;100768.31;6142020;29;20214;-76
2021/11/29 09:24:36;;;;;;;1.67;1.67;;;;;;;-1.05;70.57;100770.28;6142019;29;20264;-76
2021/11/29 09:27:42;;;;;;;1.87;1.80;;;;;;;-0.94;69.78;100759.38;6141904;29;20227;-76
2021/11/29 09:30:47;;;;;;;1.80;1.70;;;;;;;-1.05;70.58;100763.06;6140350;29;20262;-77
2021/11/29 09:33:53;;;;;;;2.07;1.97;;;;;;;-1.13;70.13;100754.09;6141803;29;20196;-77
2021/11/29 09:36:58;;;;;;;2.30;2.00;;;;;;;-1.06;70.26;100744.47;6141546;29;20253;-76
2021/11/29 09:40:02;;;;;;;2.10;2.00;;;;;;;-1.22;70.54;100752.25;6140940;29;20312;-76
2021/11/29 09:43:13;;;;;;;1.90;1.80;;;;;;;-1.08;71.04;100746.47;6141517;29;20225;-77
2021/11/29 09:46:17;;;;;;;2.03;1.93;;;;;;;-1.03;71.10;100750.41;6140660;29;20479;-76
2021/11/29 09:49:28;;;;;;;1.80;1.80;;;;;;;-1.11;71.65;100741.38;6144659;29;20311;-76
2021/11/29 09:52:32;;;;;;;1.60;1.60;;;;;;;-1.04;71.78;100731.78;6146212;29;20192;-76
2021/11/29 09:55:37;;;;;;;1.93;1.90;;;;;;;-0.98;71.44;100747.28;6145071;29;20385;-76
2021/11/29 09:58:42;;;;;;;1.53;1.53;;;;;;;-0.94;71.07;100733.44;6146407;29;20188;-76
2021/11/29 10:01:46;;;;;;;5.30;2.13;;;;;;;-0.90;71.65;100744.72;6145826;29;20221;-76
2021/11/29 10:04:54;;;;;;;1.80;1.80;;;;;;;-1.17;71.66;100736.59;6145826;29;20188;-77
2021/11/29 10:07:58;;;;;;;1.80;1.70;;;;;;;-0.96;71.38;100726.53;6143686;29;20267;-77
2021/11/29 10:11:06;;;;;;;1.70;1.70;;;;;;;-0.93;71.31;100726.25;6144462;29;20202;-76
2021/11/29 10:14:15;;;;;;;4.20;2.20;;;;;;;-0.90;71.97;100717.94;6143306;29;20192;-76
2021/11/29 10:17:25;;;;;;;1.93;1.83;;;;;;;-0.99;72.28;100724.16;6144143;29;20192;-76
2021/11/29 10:20:32;;;;;;;2.47;2.37;;;;;;;-1.06;72.52;100718.56;6143595;29;20269;-76
2021/11/29 10:23:39;;;;;;;1.83;1.80;;;;;;;-0.97;72.78;100717.66;6142601;29;20214;-76
2021/11/29 10:26:49;;;;;;;5.23;2.23;;;;;;;-0.93;72.87;100702.16;6143972;29;20204;-76
2021/11/29 10:29:56;;;;;;;2.07;1.97;;;;;;;-0.74;72.34;100702.06;6143540;29;20239;-76
2021/11/29 10:33:00;;;;;;;3.70;1.90;;;;;;;-0.74;72.16;100712.78;6143559;29;20297;-76
2021/11/29 10:36:14;;;;;;;1.90;1.90;;;;;;;-0.90;73.47;100705.38;6143485;29;20189;-76
2021/11/29 10:39:21;;;;;;;2.03;1.93;;;;;;;-0.69;72.86;100707.81;6143840;29;20266;-76
2021/11/29 10:42:28;;;;;;;2.00;2.00;;;;;;;-0.74;73.09;100697.56;6143656;29;20255;-76
2021/11/29 10:45:36;;;;;;;15.97;2.30;;;;;;;-0.60;73.48;100704.28;6142739;29;20214;-76
2021/11/29 10:48:40;;;;;;;1.90;1.90;;;;;;;-0.58;73.18;100691.56;6143723;29;20227;-77
2021/11/29 10:51:48;;;;;;;2.30;2.10;;;;;;;-0.47;72.86;100696.72;6143640;29;20316;-76
2021/11/29 10:54:54;;;;;;;6.23;2.40;;;;;;;-0.46;73.22;100695.72;6142261;29;20190;-76
2021/11/29 10:57:59;;;;;;;2.23;2.10;;;;;;;-0.40;72.95;100683.56;6143350;29;20220;-76
2021/11/29 11:01:04;;;;;;;2.43;2.20;;;;;;;-0.30;73.01;100682.50;6143475;29;20191;-76
2021/11/29 11:04:11;;;;;;;1.97;1.97;;;;;;;-0.38;72.98;100686.91;6143019;29;20279;-77
2021/11/29 11:07:21;;;;;;;2.10;1.97;;;;;;;-0.29;73.73;100684.19;6104118;29;1141534;-77
2021/11/29 11:10:34;;;;;;;5.70;1.87;;;;;;;-0.33;72.94;100680.13;6143503;29;20472;-76
2021/11/29 11:13:57;;;;;;;1.90;1.90;;;;;;;-0.51;73.84;100670.38;6144133;29;20225;-76
2021/11/29 11:17:03;;;;;;;1.97;1.97;;;;;;;-0.52;73.71;100669.53;6144182;29;20198;-76
2021/11/29 11:20:12;;;;;;;1.77;1.70;;;;;;;-0.51;74.21;100663.16;6143593;29;20193;-76
2021/11/29 11:23:27;;;;;;;1.93;1.70;;;;;;;-0.36;73.66;100664.34;6144111;29;20245;-76
2021/11/29 11:26:32;;;;;;;1.70;1.60;;;;;;;-0.48;74.15;100665.53;6144244;29;20273;-77
2021/11/29 11:29:46;;;;;;;4.00;1.87;;;;;;;-0.50;73.90;100650.63;6144140;29;20212;-76
2021/11/29 11:32:55;;;;;;;1.60;1.60;;;;;;;-0.56;74.09;100652.06;6144364;29;20256;-76
2021/11/29 11:36:00;;;;;;;1.70;1.70;;;;;;;-0.62;74.24;100652.66;6143847;29;20228;-77
2021/11/29 11:39:06;;;;;;;5.53;1.93;;;;;;;-0.47;72.95;100650.31;6142934;29;20205;-76
2021/11/29 11:42:11;;;;;;;1.57;1.57;;;;;;;-0.42;73.45;100654.22;6142658;29;20249;-76
2021/11/29 11:45:17;;;;;;;1.90;1.83;;;;;;;-0.34;72.25;100654.31;6143602;29;20189;-76
2021/11/29 11:48:23;;;;;;;2.60;1.90;;;;;;;-0.36;72.07;100647.44;6142475;29;20384;-76
2021/11/29 11:51:28;;;;;;;3.50;1.73;;;;;;;-0.29;71.42;100638.63;6144045;29;20201;-76
2021/11/29 11:54:36;;;;;;;1.67;1.67;;;;;;;-0.29;70.50;100633.25;6143775;29;20197;-76
2021/11/29 11:58:03;;;;;;;1.90;1.90;;;;;;;-0.29;70.23;100638.63;6143167;29;20228;-76
2021/11/29 12:01:12;;;;;;;1.77;1.77;;;;;;;-0.37;69.99;100630.50;6141990;29;20340;-76
2021/11/29 12:04:19;;;;;;;2.07;1.97;;;;;;;-0.29;69.81;100633.25;6142695;29;20220;-76
2021/11/29 12:07:33;;;;;;;2.27;1.70;;;;;;;-0.08;70.05;100631.09;6142837;29;20232;-76
2021/11/29 12:10:41;;;;;;;2.07;2.00;;;;;;;-0.18;69.77;100630.34;6142050;29;20344;-77
2021/11/29 12:13:46;;;;;;;1.77;1.77;;;;;;;-0.32;69.24;100617.47;6141888;29;20299;-76
2021/11/29 12:16:53;;;;;;;1.80;1.80;;;;;;;-0.33;69.79;100610.41;6141899;29;20355;-76
2021/11/29 12:20:10;;;;;;;1.80;1.80;;;;;;;-0.20;69.44;100616.25;6142613;29;20237;-76
2021/11/29 12:23:40;;;;;;;2.20;2.10;;;;;;;-0.19;69.09;100611.72;6142905;29;20261;-76
2021/11/29 12:27:00;;;;;;;1.80;1.70;;;;;;;-0.25;69.45;100605.13;6143041;29;20205;-76
2021/11/29 12:30:05;;;;;;;1.97;1.90;;;;;;;-0.30;69.60;100599.41;6142233;29;20200;-76
2021/11/29 12:33:14;;;;;;;2.07;2.07;;;;;;;-0.11;69.04;100590.38;6142620;29;20199;-76
2021/11/29 12:36:21;;;;;;;1.73;1.73;;;;;;;-0.11;69.64;100590.38;6141394;29;20189;-76
2021/11/29 12:39:56;;;;;;;1.70;1.70;;;;;;;-0.20;68.85;100593.94;6142448;29;20263;-76
2021/11/29 12:43:03;;;;;;;1.67;1.63;;;;;;;-0.33;69.72;100582.75;6142268;29;20256;-76
2021/11/29 12:46:19;;;;;;;1.63;1.63;;;;;;;-0.16;69.00;100580.09;6141311;29;20190;-76
2021/11/29 12:49:37;;;;;;;1.67;1.67;;;;;;;-0.04;68.46;100586.06;6141328;29;20207;-76
2021/11/29 12:52:46;;;;;;;2.10;2.00;;;;;;;-0.15;69.11;100589.81;6142051;29;20264;-76
2021/11/29 12:55:52;;;;;;;1.80;1.80;;;;;;;0.02;68.82;100589.97;6141541;29;20222;-76
2021/11/29 12:59:07;;;;;;;1.80;1.70;;;;;;;-0.13;68.65;100578.94;6141257;29;20197;-78
2021/11/29 13:02:36;;;;;;;1.43;1.43;;;;;;;0.16;67.96;100567.91;6140921;29;20451;-76
2021/11/29 13:05:44;;;;;;;1.70;1.70;;;;;;;0.11;67.54;100570.22;6141404;29;20253;-76
2021/11/29 13:08:57;;;;;;;1.83;1.80;;;;;;;0.15;67.62;100566.25;6140888;29;20502;-76
2021/11/29 13:12:16;;;;;;;1.93;1.80;;;;;;;0.09;66.93;100569.56;6140741;29;20244;-76
2021/11/29 13:15:28;;;;;;;1.73;1.63;;;;;;;0.14;67.53;100569.94;6141714;29;20195;-76
2021/11/29 13:18:59;;;;;;;1.60;1.50;;;;;;;0.10;67.22;100568.56;6141407;29;20265;-76
2021/11/29 13:22:07;;;;;;;2.23;2.13;;;;;;;-0.07;66.98;100563.06;6140474;29;20252;-76
2021/11/29 13:25:11;;;;;;;1.60;1.60;;;;;;;-0.14;67.20;100566.53;6141343;29;20560;-75
2021/11/29 13:28:16;;;;;;;2.17;1.97;;;;;;;0.00;67.10;100558.75;6140358;29;20379;-75
2021/11/29 13:31:27;;;;;;;1.70;1.57;;;;;;;0.08;66.59;100559.84;6141474;29;20209;-75
2021/11/29 13:34:35;;;;;;;2.00;1.80;;;;;;;-0.16;67.07;100558.66;6140667;29;20273;-77
2021/11/29 13:37:44;;;;;;;2.10;1.63;;;;;;;-0.26;67.44;100563.25;6141441;29;20233;-74
2021/11/29 13:40:49;;;;;;;5.63;1.57;;;;;;;-0.12;66.65;100565.38;6141178;29;20229;-76
2021/11/29 13:43:54;;;;;;;1.60;1.50;;;;;;;-0.30;66.95;100545.78;6140983;29;20254;-76
2021/11/29 13:47:06;;;;;;;3.43;1.50;;;;;;;-0.27;67.33;100553.53;6140264;29;20229;-76
2021/11/29 13:50:14;;;;;;;1.90;1.70;;;;;;;-0.28;67.06;100554.50;6140392;29;20437;-74
2021/11/29 13:53:27;;;;;;;1.80;1.80;;;;;;;-0.37;67.18;100550.09;6141211;29;20195;-76
2021/11/29 13:56:32;;;;;;;1.97;1.80;;;;;;;-0.42;67.08;100557.75;6141183;29;20221;-77
2021/11/29 13:59:37;;;;;;;4.97;2.20;;;;;;;-0.35;66.88;100552.59;6140231;29;20275;-76
2021/11/29 14:02:45;;;;;;;4.10;1.60;;;;;;;-0.28;66.48;100546.47;6140153;29;20505;-77
2021/11/29 14:05:52;;;;;;;2.33;1.50;;;;;;;-0.48;66.68;100544.94;6139817;29;20524;-77
2021/11/29 14:08:58;;;;;;;2.20;1.67;;;;;;;-0.27;66.60;100558.88;6141306;29;20293;-75
2021/11/29 14:12:02;;;;;;;4.00;2.03;;;;;;;-0.45;66.21;100558.03;6139947;29;20310;-75
2021/11/29 14:15:09;;;;;;;1.77;1.67;;;;;;;-0.32;66.57;100550.47;6140103;29;20360;-75
2021/11/29 14:18:21;;;;;;;2.00;1.77;;;;;;;-0.30;65.52;100551.16;6139792;29;20484;-76
2021/11/29 14:21:31;;;;;;;1.90;1.80;;;;;;;-0.40;66.17;100545.03;6141156;29;20229;-76
2021/11/29 14:24:37;;;;;;;2.00;1.93;;;;;;;-0.43;66.00;100534.59;6139825;29;20234;-75
2021/11/29 14:27:41;;;;;;;2.00;2.00;;;;;;;-0.58;66.72;100532.63;6139744;29;20506;-76